Aérodrome :
LOGIN :

S'inscrire | Disclaimer

   EN    FR    IT 

 










Légende :    VFR   VFR Marginal   IFR   IFR Intensif   IFR Très Intensif
Visi : 
Plafond : 
>= 8 km
>= 3000ft
5 à 8 km
1000 à 3000 ft
1500m à 5 km
500 à 1000 ft
800 à 1500m
200 à 500 ft
< 800m
< 200 ft
Symboles :   Orages  Brouillard  Fortes neiges  Fortes précipitations  Vent > 20 kt
SIGMETs :   Divers  Orages  Givrage  Turbulence  Onde Orograph.  Cendres Volcan.






- Altitude de l'aérodrome : 374 ft
- Code IATA : LIS


LPPT - Lisboa Portela

DERNIER METAR :
  • 250030Z VRB02KT CAVOK 10/08 Q1026

METARs EXPIRÉS :
  • 250000Z 33004KT CAVOK 11/09 Q1026
  • 242330Z 36005KT 330V040 9999 FEW008 10/09 Q1026
  • 242300Z 34009KT 280V360 9999 FEW009 11/09 Q1027
  • 242230Z 32011KT 9999 FEW009 12/09 Q1027
  • 242200Z 31015KT 9999 FEW009 12/10 Q1027

TAF TAF LPPT
Valide du 25 à 00h jusqu'au 26 à 06h UTC


242310Z 2500/2606 33010KT 9999 SCT012
TEMPO 2500/2509 BKN010
BECMG 2509/2511 FEW015 BKN025
BECMG 2512/2514 29008KT
PROB40
TEMPO 2514/2517 5000 -RADZ BR SCT006 BKN012
BECMG 2517/2520 34008KT SCT035



MET'MAP, la Météo Aéronautique d'un coup d'oeil ! - Copyright ORBIFLY Décembre 2007 - Disclaimer

ORBIFLY MET'MAP TEAM :

Programmation & Développement : Alexandra Zaïnal
Sur une idée originale de : Baudouin d'Aumeries
Assistance à la programmation : Marc-Olivier Méhu
Soutien technique & logistique : Manuel Goepfert

Contact : metmap@orbifly.com




SOURCES & CREDITS :

   NOAA